sensor_id;sensor_type;location;lat;lon;timestamp;temperature;humidity
18091;DHT22;9172;49.948;9.208;2022-08-01T00:00:20;21.60;99.90
18091;DHT22;9172;49.948;9.208;2022-08-01T00:02:49;21.60;99.90
18091;DHT22;9172;49.948;9.208;2022-08-01T00:05:18;21.70;99.90
18091;DHT22;9172;49.948;9.208;2022-08-01T00:07:46;21.70;99.90
18091;DHT22;9172;49.948;9.208;2022-08-01T00:10:16;21.70;99.90
18091;DHT22;9172;49.948;9.208;2022-08-01T00:12:46;21.70;99.90
18091;DHT22;9172;49.948;9.208;2022-08-01T00:15:16;21.60;99.90
18091;DHT22;9172;49.948;9.208;2022-08-01T00:17:46;21.60;99.90
18091;DHT22;9172;49.948;9.208;2022-08-01T00:20:14;21.60;99.90
18091;DHT22;9172;49.948;9.208;2022-08-01T00:22:43;21.60;99.90
18091;DHT22;9172;49.948;9.208;2022-08-01T00:25:13;21.60;99.90
18091;DHT22;9172;49.948;9.208;2022-08-01T00:27:42;21.50;99.90
18091;DHT22;9172;49.948;9.208;2022-08-01T00:30:11;21.50;99.90
18091;DHT22;9172;49.948;9.208;2022-08-01T00:32:41;21.50;99.90
18091;DHT22;9172;49.948;9.208;2022-08-01T00:35:10;21.40;99.90
18091;DHT22;9172;49.948;9.208;2022-08-01T00:37:39;21.30;99.90
18091;DHT22;9172;49.948;9.208;2022-08-01T00:40:09;21.20;99.90
18091;DHT22;9172;49.948;9.208;2022-08-01T00:42:37;21.10;99.90
18091;DHT22;9172;49.948;9.208;2022-08-01T00:45:09;21.10;99.90
18091;DHT22;9172;49.948;9.208;2022-08-01T00:47:37;21.10;99.90
18091;DHT22;9172;49.948;9.208;2022-08-01T00:50:08;21.10;99.90
18091;DHT22;9172;49.948;9.208;2022-08-01T00:52:38;21.10;99.90
18091;DHT22;9172;49.948;9.208;2022-08-01T00:55:08;21.10;99.90
18091;DHT22;9172;49.948;9.208;2022-08-01T00:57:38;21.10;99.90
18091;DHT22;9172;49.948;9.208;2022-08-01T01:00:09;21.10;99.90
18091;DHT22;9172;49.948;9.208;2022-08-01T01:02:39;21.20;99.90
18091;DHT22;9172;49.948;9.208;2022-08-01T01:05:09;21.20;99.90
18091;DHT22;9172;49.948;9.208;2022-08-01T01:07:40;21.30;99.90
18091;DHT22;9172;49.948;9.208;2022-08-01T01:10:14;21.30;99.90
18091;DHT22;9172;49.948;9.208;2022-08-01T01:12:47;21.20;99.90
18091;DHT22;9172;49.948;9.208;2022-08-01T01:15:17;21.20;99.90
18091;DHT22;9172;49.948;9.208;2022-08-01T01:17:50;21.20;99.90
18091;DHT22;9172;49.948;9.208;2022-08-01T01:20:21;21.20;99.90
18091;DHT22;9172;49.948;9.208;2022-08-01T01:26:12;21.10;99.90
18091;DHT22;9172;49.948;9.208;2022-08-01T01:28:52;21.10;99.90
18091;DHT22;9172;49.948;9.208;2022-08-01T01:31:25;21.10;99.90
18091;DHT22;9172;49.948;9.208;2022-08-01T01:33:56;21.00;99.90
18091;DHT22;9172;49.948;9.208;2022-08-01T01:36:26;21.00;99.90
18091;DHT22;9172;49.948;9.208;2022-08-01T01:38:58;20.90;99.90
18091;DHT22;9172;49.948;9.208;2022-08-01T01:41:28;20.90;99.90
18091;DHT22;9172;49.948;9.208;2022-08-01T01:43:59;20.90;99.90
18091;DHT22;9172;49.948;9.208;2022-08-01T01:46:30;20.90;99.90
18091;DHT22;9172;49.948;9.208;2022-08-01T01:49:00;20.90;99.90
18091;DHT22;9172;49.948;9.208;2022-08-01T01:51:31;20.90;99.90
18091;DHT22;9172;49.948;9.208;2022-08-01T01:54:03;20.90;99.90
18091;DHT22;9172;49.948;9.208;2022-08-01T01:59:20;20.90;99.90
18091;DHT22;9172;49.948;9.208;2022-08-01T02:01:51;20.90;99.90
18091;DHT22;9172;49.948;9.208;2022-08-01T02:04:22;20.90;99.90
18091;DHT22;9172;49.948;9.208;2022-08-01T02:06:55;20.90;99.90
18091;DHT22;9172;49.948;9.208;2022-08-01T02:09:27;20.90;99.90
18091;DHT22;9172;49.948;9.208;2022-08-01T02:11:57;20.90;99.90
18091;DHT22;9172;49.948;9.208;2022-08-01T02:14:27;20.90;99.90
18091;DHT22;9172;49.948;9.208;2022-08-01T02:16:58;20.90;99.90
18091;DHT22;9172;49.948;9.208;2022-08-01T02:19:32;20.90;99.90
18091;DHT22;9172;49.948;9.208;2022-08-01T02:22:04;20.80;99.90
18091;DHT22;9172;49.948;9.208;2022-08-01T02:24:36;20.90;99.90
18091;DHT22;9172;49.948;9.208;2022-08-01T02:29:53;20.90;99.90
18091;DHT22;9172;49.948;9.208;2022-08-01T02:32:27;20.90;99.90
18091;DHT22;9172;49.948;9.208;2022-08-01T02:34:58;20.90;99.90
18091;DHT22;9172;49.948;9.208;2022-08-01T02:37:30;20.90;99.90
18091;DHT22;9172;49.948;9.208;2022-08-01T02:40:00;20.80;99.90
18091;DHT22;9172;49.948;9.208;2022-08-01T02:42:30;20.70;99.90
18091;DHT22;9172;49.948;9.208;2022-08-01T02:45:02;20.70;99.90
18091;DHT22;9172;49.948;9.208;2022-08-01T02:47:33;20.60;99.90
18091;DHT22;9172;49.948;9.208;2022-08-01T02:50:04;20.60;99.90
18091;DHT22;9172;49.948;9.208;2022-08-01T02:52:35;20.60;99.90
18091;DHT22;9172;49.948;9.208;2022-08-01T02:55:06;20.50;99.90
18091;DHT22;9172;49.948;9.208;2022-08-01T02:57:36;20.50;99.90
18091;DHT22;9172;49.948;9.208;2022-08-01T03:00:08;20.50;99.90
18091;DHT22;9172;49.948;9.208;2022-08-01T03:05:18;20.40;99.90
18091;DHT22;9172;49.948;9.208;2022-08-01T03:07:48;20.40;99.90
18091;DHT22;9172;49.948;9.208;2022-08-01T03:10:18;20.40;99.90
18091;DHT22;9172;49.948;9.208;2022-08-01T03:12:49;20.40;99.90
18091;DHT22;9172;49.948;9.208;2022-08-01T03:15:21;20.50;99.90
18091;DHT22;9172;49.948;9.208;2022-08-01T03:17:52;20.50;99.90
18091;DHT22;9172;49.948;9.208;2022-08-01T03:20:24;20.50;99.90
18091;DHT22;9172;49.948;9.208;2022-08-01T03:22:54;20.50;99.90
18091;DHT22;9172;49.948;9.208;2022-08-01T03:25:23;20.60;99.90
18091;DHT22;9172;49.948;9.208;2022-08-01T03:27:56;20.60;99.90
18091;DHT22;9172;49.948;9.208;2022-08-01T03:30:27;20.60;99.90
18091;DHT22;9172;49.948;9.208;2022-08-01T03:32:58;20.60;99.90
18091;DHT22;9172;49.948;9.208;2022-08-01T03:35:29;20.50;99.90
18091;DHT22;9172;49.948;9.208;2022-08-01T03:38:00;20.50;99.90
18091;DHT22;9172;49.948;9.208;2022-08-01T03:40:31;20.50;99.90
18091;DHT22;9172;49.948;9.208;2022-08-01T03:43:04;20.50;99.90
18091;DHT22;9172;49.948;9.208;2022-08-01T03:45:36;20.50;99.90
18091;DHT22;9172;49.948;9.208;2022-08-01T03:48:09;20.40;99.90
18091;DHT22;9172;49.948;9.208;2022-08-01T03:50:41;20.40;99.90
18091;DHT22;9172;49.948;9.208;2022-08-01T03:53:12;20.30;99.90
18091;DHT22;9172;49.948;9.208;2022-08-01T03:58:22;20.30;99.90
18091;DHT22;9172;49.948;9.208;2022-08-01T04:00:52;20.40;99.90
18091;DHT22;9172;49.948;9.208;2022-08-01T04:03:21;20.30;99.90
18091;DHT22;9172;49.948;9.208;2022-08-01T04:05:51;20.30;99.90
18091;DHT22;9172;49.948;9.208;2022-08-01T04:08:21;20.30;99.90
18091;DHT22;9172;49.948;9.208;2022-08-01T04:10:50;20.30;99.90
18091;DHT22;9172;49.948;9.208;2022-08-01T04:13:18;20.30;99.90
18091;DHT22;9172;49.948;9.208;2022-08-01T04:15:47;20.30;99.90
18091;DHT22;9172;49.948;9.208;2022-08-01T04:18:17;20.40;99.90
18091;DHT22;9172;49.948;9.208;2022-08-01T04:20:48;20.30;99.90
18091;DHT22;9172;49.948;9.208;2022-08-01T04:23:18;20.30;99.90
18091;DHT22;9172;49.948;9.208;2022-08-01T04:25:50;20.30;99.90
18091;DHT22;9172;49.948;9.208;2022-08-01T04:28:19;20.40;99.90
18091;DHT22;9172;49.948;9.208;2022-08-01T04:30:50;20.30;99.90
18091;DHT22;9172;49.948;9.208;2022-08-01T04:33:21;20.40;99.90
18091;DHT22;9172;49.948;9.208;2022-08-01T04:35:53;20.40;99.90
18091;DHT22;9172;49.948;9.208;2022-08-01T04:38:26;20.40;99.90
18091;DHT22;9172;49.948;9.208;2022-08-01T04:40:56;20.40;99.90
18091;DHT22;9172;49.948;9.208;2022-08-01T04:43:26;20.40;99.90
18091;DHT22;9172;49.948;9.208;2022-08-01T04:45:56;20.40;99.90
18091;DHT22;9172;49.948;9.208;2022-08-01T04:48:27;20.40;99.90
18091;DHT22;9172;49.948;9.208;2022-08-01T04:50:57;20.40;99.90
18091;DHT22;9172;49.948;9.208;2022-08-01T04:53:27;20.40;99.90
18091;DHT22;9172;49.948;9.208;2022-08-01T04:55:57;20.30;99.90
18091;DHT22;9172;49.948;9.208;2022-08-01T04:58:26;20.40;99.90
18091;DHT22;9172;49.948;9.208;2022-08-01T05:00:55;20.40;99.90
18091;DHT22;9172;49.948;9.208;2022-08-01T05:03:24;20.40;99.90
18091;DHT22;9172;49.948;9.208;2022-08-01T05:05:52;20.40;99.90
18091;DHT22;9172;49.948;9.208;2022-08-01T05:08:21;20.50;99.90
18091;DHT22;9172;49.948;9.208;2022-08-01T05:10:50;20.40;99.90
18091;DHT22;9172;49.948;9.208;2022-08-01T05:13:20;20.40;99.90
18091;DHT22;9172;49.948;9.208;2022-08-01T05:15:49;20.40;99.90
18091;DHT22;9172;49.948;9.208;2022-08-01T05:18:22;20.50;99.90
18091;DHT22;9172;49.948;9.208;2022-08-01T05:20:50;20.50;99.90
18091;DHT22;9172;49.948;9.208;2022-08-01T05:23:21;20.50;99.90
18091;DHT22;9172;49.948;9.208;2022-08-01T05:25:51;20.50;99.90
18091;DHT22;9172;49.948;9.208;2022-08-01T05:28:19;20.50;99.90
18091;DHT22;9172;49.948;9.208;2022-08-01T05:30:49;20.40;99.90
18091;DHT22;9172;49.948;9.208;2022-08-01T05:33:18;20.40;99.90
18091;DHT22;9172;49.948;9.208;2022-08-01T05:35:48;20.40;99.90
18091;DHT22;9172;49.948;9.208;2022-08-01T05:38:17;20.40;99.90
18091;DHT22;9172;49.948;9.208;2022-08-01T05:40:46;20.40;99.90
18091;DHT22;9172;49.948;9.208;2022-08-01T05:43:15;20.40;99.90
18091;DHT22;9172;49.948;9.208;2022-08-01T05:45:44;20.50;99.90
18091;DHT22;9172;49.948;9.208;2022-08-01T05:48:13;20.50;99.90
18091;DHT22;9172;49.948;9.208;2022-08-01T05:50:42;20.50;99.90
18091;DHT22;9172;49.948;9.208;2022-08-01T05:53:12;20.50;99.90
18091;DHT22;9172;49.948;9.208;2022-08-01T05:55:41;20.50;99.90
18091;DHT22;9172;49.948;9.208;2022-08-01T05:58:10;20.50;99.90
18091;DHT22;9172;49.948;9.208;2022-08-01T06:00:39;20.50;99.90
18091;DHT22;9172;49.948;9.208;2022-08-01T06:03:07;20.50;99.90
18091;DHT22;9172;49.948;9.208;2022-08-01T06:05:36;20.50;99.90
18091;DHT22;9172;49.948;9.208;2022-08-01T06:08:05;20.60;99.90
18091;DHT22;9172;49.948;9.208;2022-08-01T06:10:34;20.60;99.90
18091;DHT22;9172;49.948;9.208;2022-08-01T06:13:03;20.70;99.90
18091;DHT22;9172;49.948;9.208;2022-08-01T06:15:32;20.70;99.90
18091;DHT22;9172;49.948;9.208;2022-08-01T06:18:01;20.70;99.90
18091;DHT22;9172;49.948;9.208;2022-08-01T06:20:32;20.70;99.90
18091;DHT22;9172;49.948;9.208;2022-08-01T06:23:00;20.70;99.90
18091;DHT22;9172;49.948;9.208;2022-08-01T06:25:29;20.70;99.90
18091;DHT22;9172;49.948;9.208;2022-08-01T06:27:58;20.70;99.90
18091;DHT22;9172;49.948;9.208;2022-08-01T06:30:27;20.80;99.90
18091;DHT22;9172;49.948;9.208;2022-08-01T06:32:56;20.80;99.90
18091;DHT22;9172;49.948;9.208;2022-08-01T06:35:26;20.90;99.90
18091;DHT22;9172;49.948;9.208;2022-08-01T06:37:55;21.00;99.90
18091;DHT22;9172;49.948;9.208;2022-08-01T06:40:24;21.00;99.90
18091;DHT22;9172;49.948;9.208;2022-08-01T06:42:53;21.00;99.90
18091;DHT22;9172;49.948;9.208;2022-08-01T06:45:22;21.10;99.90
18091;DHT22;9172;49.948;9.208;2022-08-01T06:47:52;21.10;99.90
18091;DHT22;9172;49.948;9.208;2022-08-01T06:50:21;21.20;99.90
18091;DHT22;9172;49.948;9.208;2022-08-01T06:52:50;21.20;99.90
18091;DHT22;9172;49.948;9.208;2022-08-01T06:55:20;21.20;99.90
18091;DHT22;9172;49.948;9.208;2022-08-01T06:57:49;21.30;99.90
18091;DHT22;9172;49.948;9.208;2022-08-01T07:00:20;21.30;99.90
18091;DHT22;9172;49.948;9.208;2022-08-01T07:02:49;21.20;99.90
18091;DHT22;9172;49.948;9.208;2022-08-01T07:05:19;21.20;99.90
18091;DHT22;9172;49.948;9.208;2022-08-01T07:07:48;21.20;99.90
18091;DHT22;9172;49.948;9.208;2022-08-01T07:10:17;21.20;99.90
18091;DHT22;9172;49.948;9.208;2022-08-01T07:12:46;21.20;99.90
18091;DHT22;9172;49.948;9.208;2022-08-01T07:15:15;21.20;99.90
18091;DHT22;9172;49.948;9.208;2022-08-01T07:17:43;21.30;99.90
18091;DHT22;9172;49.948;9.208;2022-08-01T07:20:13;21.30;99.90
18091;DHT22;9172;49.948;9.208;2022-08-01T07:22:43;21.30;99.90
18091;DHT22;9172;49.948;9.208;2022-08-01T07:25:12;21.40;99.90
18091;DHT22;9172;49.948;9.208;2022-08-01T07:27:40;21.40;99.90
18091;DHT22;9172;49.948;9.208;2022-08-01T07:30:10;21.40;99.90
18091;DHT22;9172;49.948;9.208;2022-08-01T07:32:39;21.40;99.90
18091;DHT22;9172;49.948;9.208;2022-08-01T07:35:09;21.40;99.90
18091;DHT22;9172;49.948;9.208;2022-08-01T07:37:39;21.40;99.90
18091;DHT22;9172;49.948;9.208;2022-08-01T07:40:10;21.40;99.90
18091;DHT22;9172;49.948;9.208;2022-08-01T07:42:39;21.30;99.90
18091;DHT22;9172;49.948;9.208;2022-08-01T07:45:11;21.30;99.90
18091;DHT22;9172;49.948;9.208;2022-08-01T07:50:20;21.20;99.90
18091;DHT22;9172;49.948;9.208;2022-08-01T07:53:03;21.20;99.90
18091;DHT22;9172;49.948;9.208;2022-08-01T07:55:32;21.30;99.90
18091;DHT22;9172;49.948;9.208;2022-08-01T07:58:01;21.30;99.90
18091;DHT22;9172;49.948;9.208;2022-08-01T08:00:30;21.30;99.90
18091;DHT22;9172;49.948;9.208;2022-08-01T08:05:36;21.40;99.90
18091;DHT22;9172;49.948;9.208;2022-08-01T08:08:06;21.50;99.90
18091;DHT22;9172;49.948;9.208;2022-08-01T08:10:35;21.60;99.90
18091;DHT22;9172;49.948;9.208;2022-08-01T08:13:04;21.70;99.90
18091;DHT22;9172;49.948;9.208;2022-08-01T08:15:33;21.80;99.90
18091;DHT22;9172;49.948;9.208;2022-08-01T08:20:39;22.30;99.90
18091;DHT22;9172;49.948;9.208;2022-08-01T08:23:07;22.50;99.90
18091;DHT22;9172;49.948;9.208;2022-08-01T08:25:56;22.60;99.90
18091;DHT22;9172;49.948;9.208;2022-08-01T08:31:02;22.70;99.90
18091;DHT22;9172;49.948;9.208;2022-08-01T08:33:32;22.90;99.90
18091;DHT22;9172;49.948;9.208;2022-08-01T08:36:02;23.00;99.90
18091;DHT22;9172;49.948;9.208;2022-08-01T08:38:32;23.00;99.90
18091;DHT22;9172;49.948;9.208;2022-08-01T08:43:39;23.30;99.90
18091;DHT22;9172;49.948;9.208;2022-08-01T08:46:08;23.50;99.90
18091;DHT22;9172;49.948;9.208;2022-08-01T08:51:18;23.60;99.90
18091;DHT22;9172;49.948;9.208;2022-08-01T08:53:48;23.50;99.90
18091;DHT22;9172;49.948;9.208;2022-08-01T08:56:20;23.40;99.90
18091;DHT22;9172;49.948;9.208;2022-08-01T08:58:51;23.50;99.90
18091;DHT22;9172;49.948;9.208;2022-08-01T09:01:21;23.60;99.90
18091;DHT22;9172;49.948;9.208;2022-08-01T09:03:50;23.70;99.90
18091;DHT22;9172;49.948;9.208;2022-08-01T09:06:21;23.60;99.90
18091;DHT22;9172;49.948;9.208;2022-08-01T09:08:49;23.60;99.90
18091;DHT22;9172;49.948;9.208;2022-08-01T09:11:18;23.70;99.90
18091;DHT22;9172;49.948;9.208;2022-08-01T09:14:08;23.70;99.90
18091;DHT22;9172;49.948;9.208;2022-08-01T09:16:40;23.80;99.90
18091;DHT22;9172;49.948;9.208;2022-08-01T09:19:12;23.60;99.90
18091;DHT22;9172;49.948;9.208;2022-08-01T09:21:55;23.50;99.90
18091;DHT22;9172;49.948;9.208;2022-08-01T09:24:19;23.60;99.90
18091;DHT22;9172;49.948;9.208;2022-08-01T09:26:48;23.70;99.90
18091;DHT22;9172;49.948;9.208;2022-08-01T09:29:22;23.90;99.90
18091;DHT22;9172;49.948;9.208;2022-08-01T09:31:51;23.90;99.90
18091;DHT22;9172;49.948;9.208;2022-08-01T09:34:26;23.90;99.90
18091;DHT22;9172;49.948;9.208;2022-08-01T09:36:56;23.90;99.90
18091;DHT22;9172;49.948;9.208;2022-08-01T09:39:27;23.80;99.90
18091;DHT22;9172;49.948;9.208;2022-08-01T09:41:57;23.60;99.90
18091;DHT22;9172;49.948;9.208;2022-08-01T09:47:19;23.70;99.90
18091;DHT22;9172;49.948;9.208;2022-08-01T09:49:56;24.00;99.90
18091;DHT22;9172;49.948;9.208;2022-08-01T09:52:26;24.30;99.90
18091;DHT22;9172;49.948;9.208;2022-08-01T09:54:57;24.60;99.90
18091;DHT22;9172;49.948;9.208;2022-08-01T09:57:28;24.70;99.90
18091;DHT22;9172;49.948;9.208;2022-08-01T09:59:58;24.80;99.90
18091;DHT22;9172;49.948;9.208;2022-08-01T10:02:30;24.90;99.90
18091;DHT22;9172;49.948;9.208;2022-08-01T10:05:01;24.90;99.90
18091;DHT22;9172;49.948;9.208;2022-08-01T10:07:31;24.80;99.90
18091;DHT22;9172;49.948;9.208;2022-08-01T10:10:15;24.50;99.90
18091;DHT22;9172;49.948;9.208;2022-08-01T10:12:44;24.30;99.90
18091;DHT22;9172;49.948;9.208;2022-08-01T10:18:00;24.20;99.90
18091;DHT22;9172;49.948;9.208;2022-08-01T10:20:31;24.30;99.90
18091;DHT22;9172;49.948;9.208;2022-08-01T10:23:03;24.50;99.90
18091;DHT22;9172;49.948;9.208;2022-08-01T10:25:35;24.60;99.90
18091;DHT22;9172;49.948;9.208;2022-08-01T10:28:08;24.50;99.90
18091;DHT22;9172;49.948;9.208;2022-08-01T10:30:37;24.40;99.90
18091;DHT22;9172;49.948;9.208;2022-08-01T10:33:08;24.40;99.90
18091;DHT22;9172;49.948;9.208;2022-08-01T10:35:39;24.50;99.90
18091;DHT22;9172;49.948;9.208;2022-08-01T10:38:10;24.80;99.90
18091;DHT22;9172;49.948;9.208;2022-08-01T10:40:40;25.00;99.90
18091;DHT22;9172;49.948;9.208;2022-08-01T10:43:11;25.10;99.90
18091;DHT22;9172;49.948;9.208;2022-08-01T10:45:44;25.40;99.90
18091;DHT22;9172;49.948;9.208;2022-08-01T10:48:16;25.50;99.90
18091;DHT22;9172;49.948;9.208;2022-08-01T10:50:46;25.60;99.90
18091;DHT22;9172;49.948;9.208;2022-08-01T10:53:17;25.80;99.90
18091;DHT22;9172;49.948;9.208;2022-08-01T10:55:52;25.60;99.90
18091;DHT22;9172;49.948;9.208;2022-08-01T10:58:25;25.70;99.90
18091;DHT22;9172;49.948;9.208;2022-08-01T11:01:17;25.90;99.90
18091;DHT22;9172;49.948;9.208;2022-08-01T11:03:57;26.00;99.90
18091;DHT22;9172;49.948;9.208;2022-08-01T11:06:28;26.20;99.90
18091;DHT22;9172;49.948;9.208;2022-08-01T11:09:00;26.30;99.50
18091;DHT22;9172;49.948;9.208;2022-08-01T11:11:31;26.40;98.70
18091;DHT22;9172;49.948;9.208;2022-08-01T11:14:04;26.30;98.10
18091;DHT22;9172;49.948;9.208;2022-08-01T11:16:37;26.20;98.90
18091;DHT22;9172;49.948;9.208;2022-08-01T11:19:07;26.00;99.00
18091;DHT22;9172;49.948;9.208;2022-08-01T11:24:56;25.90;99.40
18091;DHT22;9172;49.948;9.208;2022-08-01T11:27:27;25.80;99.50
18091;DHT22;9172;49.948;9.208;2022-08-01T11:30:23;25.80;99.80
18091;DHT22;9172;49.948;9.208;2022-08-01T11:32:54;26.00;99.90
18091;DHT22;9172;49.948;9.208;2022-08-01T11:35:25;26.20;99.50
18091;DHT22;9172;49.948;9.208;2022-08-01T11:40:38;26.60;99.50
18091;DHT22;9172;49.948;9.208;2022-08-01T11:43:25;26.70;99.00
18091;DHT22;9172;49.948;9.208;2022-08-01T11:45:56;26.80;98.50
18091;DHT22;9172;49.948;9.208;2022-08-01T11:48:26;26.50;98.50
18091;DHT22;9172;49.948;9.208;2022-08-01T11:50:56;26.40;98.70
18091;DHT22;9172;49.948;9.208;2022-08-01T11:53:26;26.20;98.70
18091;DHT22;9172;49.948;9.208;2022-08-01T11:55:55;26.20;98.90
18091;DHT22;9172;49.948;9.208;2022-08-01T11:58:25;26.20;98.70
18091;DHT22;9172;49.948;9.208;2022-08-01T12:00:57;26.10;98.80
18091;DHT22;9172;49.948;9.208;2022-08-01T12:03:28;26.00;98.70
18091;DHT22;9172;49.948;9.208;2022-08-01T12:05:58;26.00;98.60
18091;DHT22;9172;49.948;9.208;2022-08-01T12:08:27;25.90;99.10
18091;DHT22;9172;49.948;9.208;2022-08-01T12:10:57;25.80;99.10
18091;DHT22;9172;49.948;9.208;2022-08-01T12:13:26;25.80;99.50
18091;DHT22;9172;49.948;9.208;2022-08-01T12:15:56;25.90;99.60
18091;DHT22;9172;49.948;9.208;2022-08-01T12:18:28;26.00;99.50
18091;DHT22;9172;49.948;9.208;2022-08-01T12:21:02;26.00;99.00
18091;DHT22;9172;49.948;9.208;2022-08-01T12:23:33;26.10;98.70
18091;DHT22;9172;49.948;9.208;2022-08-01T12:26:02;26.30;99.10
18091;DHT22;9172;49.948;9.208;2022-08-01T12:28:39;26.40;98.70
18091;DHT22;9172;49.948;9.208;2022-08-01T12:31:09;26.40;98.80
18091;DHT22;9172;49.948;9.208;2022-08-01T12:33:38;26.50;98.50
18091;DHT22;9172;49.948;9.208;2022-08-01T12:36:07;26.40;98.50
18091;DHT22;9172;49.948;9.208;2022-08-01T12:38:37;26.40;98.10
18091;DHT22;9172;49.948;9.208;2022-08-01T12:43:48;26.30;97.50
18091;DHT22;9172;49.948;9.208;2022-08-01T12:46:17;26.10;96.60
18091;DHT22;9172;49.948;9.208;2022-08-01T12:48:46;26.10;97.40
18091;DHT22;9172;49.948;9.208;2022-08-01T12:51:15;26.20;96.90
18091;DHT22;9172;49.948;9.208;2022-08-01T12:53:46;26.20;97.30
18091;DHT22;9172;49.948;9.208;2022-08-01T12:56:16;26.20;96.80
18091;DHT22;9172;49.948;9.208;2022-08-01T12:58:46;26.20;95.90
18091;DHT22;9172;49.948;9.208;2022-08-01T13:01:16;26.20;95.90
18091;DHT22;9172;49.948;9.208;2022-08-01T13:03:59;26.30;95.80
18091;DHT22;9172;49.948;9.208;2022-08-01T13:06:29;26.40;96.10
18091;DHT22;9172;49.948;9.208;2022-08-01T13:09:06;26.50;96.40
18091;DHT22;9172;49.948;9.208;2022-08-01T13:11:35;26.60;96.60
18091;DHT22;9172;49.948;9.208;2022-08-01T13:14:05;26.80;96.40
18091;DHT22;9172;49.948;9.208;2022-08-01T13:16:45;26.70;96.20
18091;DHT22;9172;49.948;9.208;2022-08-01T13:19:15;26.80;96.40
18091;DHT22;9172;49.948;9.208;2022-08-01T13:21:55;26.70;96.40
18091;DHT22;9172;49.948;9.208;2022-08-01T13:24:26;26.70;96.00
18091;DHT22;9172;49.948;9.208;2022-08-01T13:26:56;26.60;95.40
18091;DHT22;9172;49.948;9.208;2022-08-01T13:29:31;26.60;95.70
18091;DHT22;9172;49.948;9.208;2022-08-01T13:32:01;26.40;95.60
18091;DHT22;9172;49.948;9.208;2022-08-01T13:34:32;26.30;95.60
18091;DHT22;9172;49.948;9.208;2022-08-01T13:37:01;26.30;95.80
18091;DHT22;9172;49.948;9.208;2022-08-01T13:39:30;26.30;96.20
18091;DHT22;9172;49.948;9.208;2022-08-01T13:42:08;26.40;95.90
18091;DHT22;9172;49.948;9.208;2022-08-01T13:44:38;26.50;96.20
18091;DHT22;9172;49.948;9.208;2022-08-01T13:47:07;26.50;95.70
18091;DHT22;9172;49.948;9.208;2022-08-01T13:49:37;26.50;96.40
18091;DHT22;9172;49.948;9.208;2022-08-01T13:52:06;26.50;95.20
18091;DHT22;9172;49.948;9.208;2022-08-01T13:54:35;26.20;95.60
18091;DHT22;9172;49.948;9.208;2022-08-01T13:57:04;26.10;95.80
18091;DHT22;9172;49.948;9.208;2022-08-01T13:59:32;26.10;96.00
18091;DHT22;9172;49.948;9.208;2022-08-01T14:02:02;26.10;96.00
18091;DHT22;9172;49.948;9.208;2022-08-01T14:04:32;26.20;96.60
18091;DHT22;9172;49.948;9.208;2022-08-01T14:07:02;26.30;95.30
18091;DHT22;9172;49.948;9.208;2022-08-01T14:09:31;26.30;95.40
18091;DHT22;9172;49.948;9.208;2022-08-01T14:12:01;26.30;95.00
18091;DHT22;9172;49.948;9.208;2022-08-01T14:14:30;26.30;95.20
18091;DHT22;9172;49.948;9.208;2022-08-01T14:16:58;26.30;95.50
18091;DHT22;9172;49.948;9.208;2022-08-01T14:19:29;26.40;94.70
18091;DHT22;9172;49.948;9.208;2022-08-01T14:21:58;26.40;94.90
18091;DHT22;9172;49.948;9.208;2022-08-01T14:24:26;26.40;94.60
18091;DHT22;9172;49.948;9.208;2022-08-01T14:26:57;26.50;95.30
18091;DHT22;9172;49.948;9.208;2022-08-01T14:29:26;26.70;95.80
18091;DHT22;9172;49.948;9.208;2022-08-01T14:31:55;26.80;94.90
18091;DHT22;9172;49.948;9.208;2022-08-01T14:34:24;26.80;94.60
18091;DHT22;9172;49.948;9.208;2022-08-01T14:36:53;26.70;94.30
18091;DHT22;9172;49.948;9.208;2022-08-01T14:39:22;26.70;95.10
18091;DHT22;9172;49.948;9.208;2022-08-01T14:41:52;26.60;94.40
18091;DHT22;9172;49.948;9.208;2022-08-01T14:44:22;26.40;94.60
18091;DHT22;9172;49.948;9.208;2022-08-01T14:46:50;26.30;94.00
18091;DHT22;9172;49.948;9.208;2022-08-01T14:49:19;26.20;94.10
18091;DHT22;9172;49.948;9.208;2022-08-01T14:51:48;26.20;94.40
18091;DHT22;9172;49.948;9.208;2022-08-01T14:54:18;26.10;94.60
18091;DHT22;9172;49.948;9.208;2022-08-01T14:56:47;26.20;94.90
18091;DHT22;9172;49.948;9.208;2022-08-01T14:59:15;26.20;95.10
18091;DHT22;9172;49.948;9.208;2022-08-01T15:01:44;26.30;95.20
18091;DHT22;9172;49.948;9.208;2022-08-01T15:04:13;26.30;95.30
18091;DHT22;9172;49.948;9.208;2022-08-01T15:06:44;26.30;95.40
18091;DHT22;9172;49.948;9.208;2022-08-01T15:09:14;26.30;95.50
18091;DHT22;9172;49.948;9.208;2022-08-01T15:11:43;26.30;95.60
18091;DHT22;9172;49.948;9.208;2022-08-01T15:14:13;26.40;95.60
18091;DHT22;9172;49.948;9.208;2022-08-01T15:17:00;26.40;95.20
18091;DHT22;9172;49.948;9.208;2022-08-01T15:19:29;26.40;95.00
18091;DHT22;9172;49.948;9.208;2022-08-01T15:21:57;26.40;94.80
18091;DHT22;9172;49.948;9.208;2022-08-01T15:24:26;26.30;94.70
18091;DHT22;9172;49.948;9.208;2022-08-01T15:26:55;26.30;94.90
18091;DHT22;9172;49.948;9.208;2022-08-01T15:29:24;26.30;94.90
18091;DHT22;9172;49.948;9.208;2022-08-01T15:31:53;26.40;95.20
18091;DHT22;9172;49.948;9.208;2022-08-01T15:34:22;26.40;95.40
18091;DHT22;9172;49.948;9.208;2022-08-01T15:36:52;26.40;95.50
18091;DHT22;9172;49.948;9.208;2022-08-01T15:39:22;26.50;95.60
18091;DHT22;9172;49.948;9.208;2022-08-01T15:41:51;26.50;94.70
18091;DHT22;9172;49.948;9.208;2022-08-01T15:44:19;26.50;95.10
18091;DHT22;9172;49.948;9.208;2022-08-01T15:46:49;26.40;94.80
18091;DHT22;9172;49.948;9.208;2022-08-01T15:49:18;26.30;94.90
18091;DHT22;9172;49.948;9.208;2022-08-01T15:51:49;26.30;95.20
18091;DHT22;9172;49.948;9.208;2022-08-01T15:54:18;26.20;95.00
18091;DHT22;9172;49.948;9.208;2022-08-01T15:59:22;26.20;95.40
18091;DHT22;9172;49.948;9.208;2022-08-01T16:01:51;26.30;95.60
18091;DHT22;9172;49.948;9.208;2022-08-01T16:07:00;26.20;95.60
18091;DHT22;9172;49.948;9.208;2022-08-01T16:09:30;26.20;95.30
18091;DHT22;9172;49.948;9.208;2022-08-01T16:12:00;26.10;95.30
18091;DHT22;9172;49.948;9.208;2022-08-01T16:14:28;26.10;95.30
18091;DHT22;9172;49.948;9.208;2022-08-01T16:16:57;26.10;95.10
18091;DHT22;9172;49.948;9.208;2022-08-01T16:19:26;26.10;95.00
18091;DHT22;9172;49.948;9.208;2022-08-01T16:21:54;26.00;94.70
18091;DHT22;9172;49.948;9.208;2022-08-01T16:24:23;26.00;95.70
18091;DHT22;9172;49.948;9.208;2022-08-01T16:26:54;25.90;96.00
18091;DHT22;9172;49.948;9.208;2022-08-01T16:29:23;25.80;95.70
18091;DHT22;9172;49.948;9.208;2022-08-01T16:31:55;25.80;96.30
18091;DHT22;9172;49.948;9.208;2022-08-01T16:34:23;25.80;96.40
18091;DHT22;9172;49.948;9.208;2022-08-01T16:36:53;25.70;96.70
18091;DHT22;9172;49.948;9.208;2022-08-01T16:39:22;25.70;96.70
18091;DHT22;9172;49.948;9.208;2022-08-01T16:41:50;25.70;96.60
18091;DHT22;9172;49.948;9.208;2022-08-01T16:44:20;25.70;96.70
18091;DHT22;9172;49.948;9.208;2022-08-01T16:46:49;25.70;96.50
18091;DHT22;9172;49.948;9.208;2022-08-01T16:49:18;25.60;96.50
18091;DHT22;9172;49.948;9.208;2022-08-01T16:51:48;25.60;96.50
18091;DHT22;9172;49.948;9.208;2022-08-01T16:54:18;25.60;96.90